Aeroporto :
LOGIN :

Iscrizione | Disclaimer

   EN    FR    IT 

 










Sommario :    VFR   VFR Marginale   IFR   IFR Intensivo   IFR Molto Intensivo
Visibilità : 
Base nubi : 
>= 8 km
>= 3000ft
5 / 8 km
1000 / 3000 ft
1500m / 5 km
500 / 1000 ft
800 / 1500m
200 / 500 ft
< 800m
< 200 ft
Simboli :   Temporali  Nebbia  Neve Forte  Precipitazioni Forti  Vento > 20 kt
SIGMETs :   Varie  Temporali  Ghiacco  Turbolenza  Onda orograficha  Ceneri Vulcaniche






- Altitudine del aeroporto : 218 ft
- Codice IATA : LBG


LFPB - Paris / Le Bourget

ULTIMO METAR :
  • 180630Z AUTO 20006KT 9999 FEW021 OVC200 05/02 Q1027 NOSIG

METARs OBSOLETI :
  • 180600Z AUTO 22007KT 160V270 9999 SCT021 BKN220 05/02 Q1027 NOSIG
  • 180530Z AUTO VRB02KT 9999 SCT021 SCT052 05/01 Q1027 NOSIG
  • 180500Z AUTO 21007KT 180V240 9999 FEW022 SCT046 05/02 Q1027 NOSIG
  • 180430Z AUTO 23008KT 190V250 9999 FEW021 05/02 Q1027 NOSIG
  • 180400Z AUTO 23009KT 9999 FEW020 05/02 Q1027 NOSIG

TAF TAF LFPB
Valido dal 18 a 06 ore il 19 a 06 ore UTC


180500Z 1806/1906 23010KT 9999 SCT030
TEMPO 1812/1817 24015G25KT
PROB30
TEMPO 1814/1817 29020G30KT SHRA SCT030TCU
BECMG 1818/1820 23015G25KT
TEMPO 1822/1901 -RA BKN013
PROB40
TEMPO 1823/1901 31025G40KT 2500 +RA BKN009 BKN012TCU
BECMG 1902/1904 27010KT
ATIS : +33 1 48 62 43 92



MetMap, La meteo Aeronautica in un colpo d'occhio ! - Copyright ORBIFLY Dicembre 2007 - Disclaimer

ORBIFLY MET'MAP TEAM :

Programmazione e sviluppo : Alexandra Zaïnal
Concezione : Baudouin d'Aumeries
Aiuto per la programmazione : Marc-Olivier Méhu
Supporto tecnico e logistico : Manuel Goepfert
Aiuto per la traduzione : Arnaldo La Scala

Contatto : metmap@orbifly.com




FONTI E CREDITI :

   NOAA